sensor_id;sensor_type;location;lat;lon;timestamp;pressure;altitude;pressure_sealevel;temperature;humidity
55916;BME280;41826;53.246;-6.670;2023-12-14T00:01:21;101099.06;;;6.05;100.00
55916;BME280;41826;53.246;-6.670;2023-12-14T00:03:47;101089.59;;;6.04;100.00
55916;BME280;41826;53.246;-6.670;2023-12-14T00:06:15;101099.94;;;6.05;100.00
55916;BME280;41826;53.246;-6.670;2023-12-14T00:08:40;101108.16;;;5.99;100.00
55916;BME280;41826;53.246;-6.670;2023-12-14T00:11:06;101102.53;;;6.05;100.00
55916;BME280;41826;53.246;-6.670;2023-12-14T00:13:32;101104.50;;;6.02;100.00
55916;BME280;41826;53.246;-6.670;2023-12-14T00:15:57;101101.50;;;6.08;100.00
55916;BME280;41826;53.246;-6.670;2023-12-14T00:18:22;101093.56;;;6.10;100.00
55916;BME280;41826;53.246;-6.670;2023-12-14T00:20:48;101092.50;;;6.12;100.00
55916;BME280;41826;53.246;-6.670;2023-12-14T00:23:13;101097.63;;;6.14;100.00
55916;BME280;41826;53.246;-6.670;2023-12-14T00:25:39;101087.50;;;6.09;100.00
55916;BME280;41826;53.246;-6.670;2023-12-14T00:28:04;101071.03;;;6.08;100.00
55916;BME280;41826;53.246;-6.670;2023-12-14T00:30:29;101082.09;;;6.12;100.00
55916;BME280;41826;53.246;-6.670;2023-12-14T00:32:57;101108.66;;;6.17;100.00
55916;BME280;41826;53.246;-6.670;2023-12-14T00:35:23;101100.03;;;6.17;100.00
55916;BME280;41826;53.246;-6.670;2023-12-14T00:37:48;101083.03;;;6.24;100.00
55916;BME280;41826;53.246;-6.670;2023-12-14T00:40:14;101090.22;;;6.20;100.00
55916;BME280;41826;53.246;-6.670;2023-12-14T00:42:40;101082.28;;;6.22;100.00
55916;BME280;41826;53.246;-6.670;2023-12-14T00:45:05;101083.13;;;6.22;100.00
55916;BME280;41826;53.246;-6.670;2023-12-14T00:47:30;101082.94;;;6.25;100.00
55916;BME280;41826;53.246;-6.670;2023-12-14T00:49:57;101084.59;;;6.26;100.00
55916;BME280;41826;53.246;-6.670;2023-12-14T00:52:23;101087.94;;;6.28;100.00
55916;BME280;41826;53.246;-6.670;2023-12-14T00:54:48;101077.06;;;6.35;100.00
55916;BME280;41826;53.246;-6.670;2023-12-14T00:57:15;101085.63;;;6.37;100.00
55916;BME280;41826;53.246;-6.670;2023-12-14T00:59:40;101085.53;;;6.38;100.00
55916;BME280;41826;53.246;-6.670;2023-12-14T01:02:06;101093.13;;;6.41;100.00
55916;BME280;41826;53.246;-6.670;2023-12-14T01:04:32;101086.94;;;6.42;100.00
55916;BME280;41826;53.246;-6.670;2023-12-14T01:06:57;101094.78;;;6.42;100.00
55916;BME280;41826;53.246;-6.670;2023-12-14T01:09:23;101083.63;;;6.40;100.00
55916;BME280;41826;53.246;-6.670;2023-12-14T01:11:48;101086.94;;;6.42;100.00
55916;BME280;41826;53.246;-6.670;2023-12-14T01:14:13;101070.38;;;6.43;100.00
55916;BME280;41826;53.246;-6.670;2023-12-14T01:16:39;101078.41;;;6.40;100.00
55916;BME280;41826;53.246;-6.670;2023-12-14T01:19:04;101079.34;;;6.39;100.00
55916;BME280;41826;53.246;-6.670;2023-12-14T01:21:31;101070.19;;;6.34;100.00
55916;BME280;41826;53.246;-6.670;2023-12-14T01:23:58;101082.91;;;6.38;100.00
55916;BME280;41826;53.246;-6.670;2023-12-14T01:26:26;101081.00;;;6.40;100.00
55916;BME280;41826;53.246;-6.670;2023-12-14T01:28:53;101077.25;;;6.44;100.00
55916;BME280;41826;53.246;-6.670;2023-12-14T01:31:20;101063.94;;;6.36;100.00
55916;BME280;41826;53.246;-6.670;2023-12-14T01:33:48;101056.50;;;6.30;100.00
55916;BME280;41826;53.246;-6.670;2023-12-14T01:36:19;101042.56;;;6.31;100.00
55916;BME280;41826;53.246;-6.670;2023-12-14T01:38:44;101059.03;;;6.32;100.00
55916;BME280;41826;53.246;-6.670;2023-12-14T01:41:09;101054.53;;;6.34;100.00
55916;BME280;41826;53.246;-6.670;2023-12-14T01:43:36;101058.72;;;6.36;100.00
55916;BME280;41826;53.246;-6.670;2023-12-14T01:46:01;101051.09;;;6.33;100.00
55916;BME280;41826;53.246;-6.670;2023-12-14T01:48:27;101066.63;;;6.35;100.00
55916;BME280;41826;53.246;-6.670;2023-12-14T01:50:53;101058.06;;;6.33;100.00
55916;BME280;41826;53.246;-6.670;2023-12-14T01:53:19;101051.81;;;6.35;100.00
55916;BME280;41826;53.246;-6.670;2023-12-14T01:55:44;101059.00;;;6.44;100.00
55916;BME280;41826;53.246;-6.670;2023-12-14T01:58:10;101060.66;;;6.45;100.00
55916;BME280;41826;53.246;-6.670;2023-12-14T02:03:19;101067.94;;;6.53;100.00
55916;BME280;41826;53.246;-6.670;2023-12-14T02:05:44;101056.16;;;6.47;100.00
55916;BME280;41826;53.246;-6.670;2023-12-14T02:08:09;101068.88;;;6.52;100.00
55916;BME280;41826;53.246;-6.670;2023-12-14T02:10:35;101074.72;;;6.56;100.00
55916;BME280;41826;53.246;-6.670;2023-12-14T02:13:01;101076.28;;;6.58;100.00
55916;BME280;41826;53.246;-6.670;2023-12-14T02:15:26;101070.00;;;6.61;100.00
55916;BME280;41826;53.246;-6.670;2023-12-14T02:17:52;101062.69;;;6.66;100.00
55916;BME280;41826;53.246;-6.670;2023-12-14T02:20:18;101070.50;;;6.66;100.00
55916;BME280;41826;53.246;-6.670;2023-12-14T02:22:53;101063.53;;;6.66;100.00
55916;BME280;41826;53.246;-6.670;2023-12-14T02:25:20;101066.97;;;6.67;100.00
55916;BME280;41826;53.246;-6.670;2023-12-14T02:27:46;101081.25;;;6.74;100.00
55916;BME280;41826;53.246;-6.670;2023-12-14T02:30:12;101078.66;;;6.74;100.00
55916;BME280;41826;53.246;-6.670;2023-12-14T02:32:38;101077.47;;;6.78;100.00
55916;BME280;41826;53.246;-6.670;2023-12-14T02:35:04;101078.19;;;6.80;100.00
55916;BME280;41826;53.246;-6.670;2023-12-14T02:37:29;101078.84;;;6.84;100.00
55916;BME280;41826;53.246;-6.670;2023-12-14T02:39:58;101084.88;;;6.84;100.00
55916;BME280;41826;53.246;-6.670;2023-12-14T02:42:23;101088.22;;;6.86;100.00
55916;BME280;41826;53.246;-6.670;2023-12-14T02:44:54;101088.09;;;6.88;100.00
55916;BME280;41826;53.246;-6.670;2023-12-14T02:47:19;101089.66;;;6.90;100.00
55916;BME280;41826;53.246;-6.670;2023-12-14T02:49:44;101092.03;;;6.93;100.00
55916;BME280;41826;53.246;-6.670;2023-12-14T02:52:10;101086.81;;;6.93;100.00
55916;BME280;41826;53.246;-6.670;2023-12-14T02:54:36;101093.59;;;6.96;100.00
55916;BME280;41826;53.246;-6.670;2023-12-14T02:57:02;101093.72;;;6.94;100.00
55916;BME280;41826;53.246;-6.670;2023-12-14T02:59:29;101098.09;;;6.94;100.00
55916;BME280;41826;53.246;-6.670;2023-12-14T03:01:54;101094.22;;;7.00;100.00
55916;BME280;41826;53.246;-6.670;2023-12-14T03:04:19;101084.69;;;6.99;100.00
55916;BME280;41826;53.246;-6.670;2023-12-14T03:06:45;101075.94;;;7.00;100.00
55916;BME280;41826;53.246;-6.670;2023-12-14T03:09:11;101089.72;;;7.02;100.00
55916;BME280;41826;53.246;-6.670;2023-12-14T03:11:37;101084.38;;;7.03;100.00
55916;BME280;41826;53.246;-6.670;2023-12-14T03:14:02;101085.19;;;7.04;100.00
55916;BME280;41826;53.246;-6.670;2023-12-14T03:16:29;101082.59;;;7.04;100.00
55916;BME280;41826;53.246;-6.670;2023-12-14T03:18:54;101083.53;;;7.03;100.00
55916;BME280;41826;53.246;-6.670;2023-12-14T03:21:21;101090.03;;;6.97;100.00
55916;BME280;41826;53.246;-6.670;2023-12-14T03:23:47;101088.44;;;7.07;100.00
55916;BME280;41826;53.246;-6.670;2023-12-14T03:26:12;101085.19;;;7.04;100.00
55916;BME280;41826;53.246;-6.670;2023-12-14T03:28:37;101088.75;;;7.03;100.00
55916;BME280;41826;53.246;-6.670;2023-12-14T03:31:03;101083.53;;;7.03;100.00
55916;BME280;41826;53.246;-6.670;2023-12-14T03:33:28;101081.66;;;7.05;100.00
55916;BME280;41826;53.246;-6.670;2023-12-14T03:35:55;101079.97;;;7.04;100.00
55916;BME280;41826;53.246;-6.670;2023-12-14T03:38:21;101085.00;;;7.07;100.00
55916;BME280;41826;53.246;-6.670;2023-12-14T03:40:47;101082.50;;;7.05;100.00
55916;BME280;41826;53.246;-6.670;2023-12-14T03:43:13;101085.00;;;7.07;100.00
55916;BME280;41826;53.246;-6.670;2023-12-14T03:45:40;101082.50;;;7.05;100.00
55916;BME280;41826;53.246;-6.670;2023-12-14T03:48:06;101077.25;;;7.05;100.00
55916;BME280;41826;53.246;-6.670;2023-12-14T03:50:31;101071.44;;;7.02;100.00
55916;BME280;41826;53.246;-6.670;2023-12-14T03:52:58;101080.22;;;7.01;100.00
55916;BME280;41826;53.246;-6.670;2023-12-14T03:55:24;101077.88;;;7.09;100.00
55916;BME280;41826;53.246;-6.670;2023-12-14T03:57:49;101072.88;;;7.06;100.00
55916;BME280;41826;53.246;-6.670;2023-12-14T04:00:15;101079.31;;;7.13;100.00
55916;BME280;41826;53.246;-6.670;2023-12-14T04:02:40;101086.19;;;7.14;100.00
55916;BME280;41826;53.246;-6.670;2023-12-14T04:05:07;101091.22;;;7.17;100.00
55916;BME280;41826;53.246;-6.670;2023-12-14T04:07:36;101080.53;;;7.20;100.00
55916;BME280;41826;53.246;-6.670;2023-12-14T04:10:05;101088.28;;;7.22;100.00
55916;BME280;41826;53.246;-6.670;2023-12-14T04:12:30;101087.41;;;7.21;100.00
55916;BME280;41826;53.246;-6.670;2023-12-14T04:14:58;101091.00;;;7.20;100.00
55916;BME280;41826;53.246;-6.670;2023-12-14T04:17:25;101078.66;;;7.22;100.00
55916;BME280;41826;53.246;-6.670;2023-12-14T04:19:50;101084.25;;;7.29;100.00
55916;BME280;41826;53.246;-6.670;2023-12-14T04:22:16;101079.88;;;7.29;100.00
55916;BME280;41826;53.246;-6.670;2023-12-14T04:24:41;101087.59;;;7.31;100.00
55916;BME280;41826;53.246;-6.670;2023-12-14T04:27:06;101094.25;;;7.35;100.00
55916;BME280;41826;53.246;-6.670;2023-12-14T04:29:31;101102.91;;;7.35;100.00
55916;BME280;41826;53.246;-6.670;2023-12-14T04:31:57;101099.34;;;7.36;100.00
55916;BME280;41826;53.246;-6.670;2023-12-14T04:34:23;101087.97;;;7.37;100.00
55916;BME280;41826;53.246;-6.670;2023-12-14T04:36:48;101101.28;;;7.46;100.00
55916;BME280;41826;53.246;-6.670;2023-12-14T04:39:15;101109.72;;;7.49;100.00
55916;BME280;41826;53.246;-6.670;2023-12-14T04:41:42;101119.34;;;7.49;100.00
55916;BME280;41826;53.246;-6.670;2023-12-14T04:44:10;101102.75;;;7.50;100.00
55916;BME280;41826;53.246;-6.670;2023-12-14T04:46:36;101124.25;;;7.53;100.00
55916;BME280;41826;53.246;-6.670;2023-12-14T04:49:02;101127.34;;;7.58;100.00
55916;BME280;41826;53.246;-6.670;2023-12-14T04:51:27;101131.75;;;7.58;100.00
55916;BME280;41826;53.246;-6.670;2023-12-14T04:53:52;101132.34;;;7.62;100.00
55916;BME280;41826;53.246;-6.670;2023-12-14T04:56:17;101123.66;;;7.61;100.00
55916;BME280;41826;53.246;-6.670;2023-12-14T04:58:43;101126.28;;;7.61;100.00
55916;BME280;41826;53.246;-6.670;2023-12-14T05:01:08;101124.72;;;7.58;100.00
55916;BME280;41826;53.246;-6.670;2023-12-14T05:03:34;101124.63;;;7.60;100.00
55916;BME280;41826;53.246;-6.670;2023-12-14T05:06:00;101128.66;;;7.64;100.00
55916;BME280;41826;53.246;-6.670;2023-12-14T05:08:26;101143.63;;;7.62;100.00
55916;BME280;41826;53.246;-6.670;2023-12-14T05:10:53;101142.59;;;7.65;100.00
55916;BME280;41826;53.246;-6.670;2023-12-14T05:13:18;101142.78;;;7.62;100.00
55916;BME280;41826;53.246;-6.670;2023-12-14T05:15:46;101142.69;;;7.63;100.00
55916;BME280;41826;53.246;-6.670;2023-12-14T05:18:12;101153.88;;;7.65;100.00
55916;BME280;41826;53.246;-6.670;2023-12-14T05:20:37;101158.25;;;7.65;100.00
55916;BME280;41826;53.246;-6.670;2023-12-14T05:23:02;101165.03;;;7.67;100.00
55916;BME280;41826;53.246;-6.670;2023-12-14T05:25:28;101157.22;;;7.67;100.00
55916;BME280;41826;53.246;-6.670;2023-12-14T05:27:53;101165.53;;;7.72;100.00
55916;BME280;41826;53.246;-6.670;2023-12-14T05:30:19;101162.06;;;7.72;100.00
55916;BME280;41826;53.246;-6.670;2023-12-14T05:32:44;101170.53;;;7.75;100.00
55916;BME280;41826;53.246;-6.670;2023-12-14T05:35:10;101172.53;;;7.72;100.00
55916;BME280;41826;53.246;-6.670;2023-12-14T05:37:35;101172.81;;;7.80;100.00
55916;BME280;41826;53.246;-6.670;2023-12-14T05:40:02;101173.63;;;7.80;100.00
55916;BME280;41826;53.246;-6.670;2023-12-14T05:42:27;101167.34;;;7.83;100.00
55916;BME280;41826;53.246;-6.670;2023-12-14T05:44:52;101181.47;;;7.80;100.00
55916;BME280;41826;53.246;-6.670;2023-12-14T05:47:18;101180.66;;;7.80;100.00
55916;BME280;41826;53.246;-6.670;2023-12-14T05:49:43;101176.59;;;7.76;100.00
55916;BME280;41826;53.246;-6.670;2023-12-14T05:52:10;101182.28;;;7.70;100.00
55916;BME280;41826;53.246;-6.670;2023-12-14T05:54:40;101174.53;;;7.68;100.00
55916;BME280;41826;53.246;-6.670;2023-12-14T05:57:05;101182.28;;;7.70;100.00
55916;BME280;41826;53.246;-6.670;2023-12-14T05:59:32;101177.06;;;7.70;100.00
55916;BME280;41826;53.246;-6.670;2023-12-14T06:01:58;101175.38;;;7.69;100.00
55916;BME280;41826;53.246;-6.670;2023-12-14T06:04:23;101179.75;;;7.68;100.00
55916;BME280;41826;53.246;-6.670;2023-12-14T06:06:48;101182.16;;;7.71;100.00
55916;BME280;41826;53.246;-6.670;2023-12-14T06:09:14;101185.59;;;7.72;100.00
55916;BME280;41826;53.246;-6.670;2023-12-14T06:11:39;101189.16;;;7.71;100.00
55916;BME280;41826;53.246;-6.670;2023-12-14T06:14:08;101183.94;;;7.71;100.00
55916;BME280;41826;53.246;-6.670;2023-12-14T06:16:34;101191.66;;;7.72;100.00
55916;BME280;41826;53.246;-6.670;2023-12-14T06:19:00;101190.00;;;7.71;100.00
55916;BME280;41826;53.246;-6.670;2023-12-14T06:21:26;101187.50;;;7.70;100.00
55916;BME280;41826;53.246;-6.670;2023-12-14T06:23:55;101177.25;;;7.67;100.00
55916;BME280;41826;53.246;-6.670;2023-12-14T06:26:20;101183.34;;;7.67;100.00
55916;BME280;41826;53.246;-6.670;2023-12-14T06:28:46;101175.50;;;7.67;100.00
55916;BME280;41826;53.246;-6.670;2023-12-14T06:31:12;101172.88;;;7.67;100.00
55916;BME280;41826;53.246;-6.670;2023-12-14T06:33:39;101176.44;;;7.66;100.00
55916;BME280;41826;53.246;-6.670;2023-12-14T06:36:06;101175.59;;;7.66;100.00
55916;BME280;41826;53.246;-6.670;2023-12-14T06:38:33;101183.34;;;7.67;100.00
55916;BME280;41826;53.246;-6.670;2023-12-14T06:40:58;101186.06;;;7.66;100.00
55916;BME280;41826;53.246;-6.670;2023-12-14T06:43:24;101206.22;;;7.64;100.00
55916;BME280;41826;53.246;-6.670;2023-12-14T06:45:49;101201.22;;;7.60;100.00
55916;BME280;41826;53.246;-6.670;2023-12-14T06:48:14;101204.78;;;7.59;100.00
55916;BME280;41826;53.246;-6.670;2023-12-14T06:50:40;101211.91;;;7.57;100.00
55916;BME280;41826;53.246;-6.670;2023-12-14T06:53:05;101223.91;;;7.60;100.00
55916;BME280;41826;53.246;-6.670;2023-12-14T06:55:30;101237.09;;;7.58;100.00
55916;BME280;41826;53.246;-6.670;2023-12-14T06:57:55;101240.44;;;7.60;100.00
55916;BME280;41826;53.246;-6.670;2023-12-14T07:00:21;101242.31;;;7.58;100.00
55916;BME280;41826;53.246;-6.670;2023-12-14T07:02:49;101240.75;;;7.56;100.00
55916;BME280;41826;53.246;-6.670;2023-12-14T07:05:15;101248.69;;;7.54;100.00
55916;BME280;41826;53.246;-6.670;2023-12-14T07:07:40;101259.25;;;7.53;100.00
55916;BME280;41826;53.246;-6.670;2023-12-14T07:10:06;101265.22;;;7.55;100.00
55916;BME280;41826;53.246;-6.670;2023-12-14T07:12:31;101271.59;;;7.51;100.00
55916;BME280;41826;53.246;-6.670;2023-12-14T07:14:58;101277.03;;;7.48;100.00
55916;BME280;41826;53.246;-6.670;2023-12-14T07:17:23;101293.88;;;7.44;100.00
55916;BME280;41826;53.246;-6.670;2023-12-14T07:19:50;101306.94;;;7.44;100.00
55916;BME280;41826;53.246;-6.670;2023-12-14T07:22:15;101297.53;;;7.41;100.00
55916;BME280;41826;53.246;-6.670;2023-12-14T07:24:41;101309.97;;;7.37;100.00
55916;BME280;41826;53.246;-6.670;2023-12-14T07:27:06;101311.97;;;7.34;100.00
55916;BME280;41826;53.246;-6.670;2023-12-14T07:29:32;101318.03;;;7.34;100.00
55916;BME280;41826;53.246;-6.670;2023-12-14T07:31:57;101323.81;;;7.27;100.00
55916;BME280;41826;53.246;-6.670;2023-12-14T07:34:23;101329.13;;;7.25;100.00
55916;BME280;41826;53.246;-6.670;2023-12-14T07:36:49;101337.91;;;7.24;100.00
55916;BME280;41826;53.246;-6.670;2023-12-14T07:39:15;101348.53;;;7.21;100.00
55916;BME280;41826;53.246;-6.670;2023-12-14T07:41:41;101351.28;;;7.20;100.00
55916;BME280;41826;53.246;-6.670;2023-12-14T07:44:06;101357.53;;;7.17;100.00
55916;BME280;41826;53.246;-6.670;2023-12-14T07:46:32;101364.63;;;7.15;100.00
55916;BME280;41826;53.246;-6.670;2023-12-14T07:48:57;101377.78;;;7.01;100.00
55916;BME280;41826;53.246;-6.670;2023-12-14T07:51:23;101377.78;;;6.88;100.00
55916;BME280;41826;53.246;-6.670;2023-12-14T07:53:48;101390.41;;;6.81;100.00
55916;BME280;41826;53.246;-6.670;2023-12-14T07:56:14;101390.41;;;6.81;100.00
55916;BME280;41826;53.246;-6.670;2023-12-14T07:58:39;101397.88;;;6.73;100.00
55916;BME280;41826;53.246;-6.670;2023-12-14T08:01:06;101400.84;;;6.81;100.00
55916;BME280;41826;53.246;-6.670;2023-12-14T08:03:31;101406.06;;;6.81;100.00
55916;BME280;41826;53.246;-6.670;2023-12-14T08:05:56;101408.69;;;6.81;100.00
55916;BME280;41826;53.246;-6.670;2023-12-14T08:08:23;101404.16;;;6.83;100.00
55916;BME280;41826;53.246;-6.670;2023-12-14T08:10:50;101408.69;;;6.81;100.00
55916;BME280;41826;53.246;-6.670;2023-12-14T08:13:15;101400.94;;;6.80;100.00
55916;BME280;41826;53.246;-6.670;2023-12-14T08:15:40;101398.88;;;6.85;100.00
55916;BME280;41826;53.246;-6.670;2023-12-14T08:18:06;101400.72;;;6.83;100.00
55916;BME280;41826;53.246;-6.670;2023-12-14T08:20:32;101411.09;;;6.84;100.00
55916;BME280;41826;53.246;-6.670;2023-12-14T08:22:57;101410.13;;;6.85;100.00
55916;BME280;41826;53.246;-6.670;2023-12-14T08:25:23;101417.97;;;6.85;100.00
55916;BME280;41826;53.246;-6.670;2023-12-14T08:27:49;101418.09;;;6.84;100.00
55916;BME280;41826;53.246;-6.670;2023-12-14T08:30:14;101416.19;;;6.86;100.00
55916;BME280;41826;53.246;-6.670;2023-12-14T08:32:39;101427.66;;;6.83;100.00
55916;BME280;41826;53.246;-6.670;2023-12-14T08:35:05;101430.81;;;6.88;100.00
55916;BME280;41826;53.246;-6.670;2023-12-14T08:37:30;101426.63;;;6.86;100.00
55916;BME280;41826;53.246;-6.670;2023-12-14T08:39:55;101434.16;;;6.90;100.00
55916;BME280;41826;53.246;-6.670;2023-12-14T08:42:22;101434.16;;;6.90;100.00
55916;BME280;41826;53.246;-6.670;2023-12-14T08:44:48;101437.72;;;6.89;100.00
55916;BME280;41826;53.246;-6.670;2023-12-14T08:47:13;101446.28;;;6.91;100.00
55916;BME280;41826;53.246;-6.670;2023-12-14T08:49:38;101458.38;;;6.92;100.00
55916;BME280;41826;53.246;-6.670;2023-12-14T08:52:04;101459.94;;;6.95;100.00
55916;BME280;41826;53.246;-6.670;2023-12-14T08:54:29;101472.19;;;6.94;100.00
55916;BME280;41826;53.246;-6.670;2023-12-14T08:56:55;101480.09;;;6.93;100.00
55916;BME280;41826;53.246;-6.670;2023-12-14T08:59:20;101481.13;;;6.90;100.00
55916;BME280;41826;53.246;-6.670;2023-12-14T09:01:47;101491.38;;;6.93;100.00
55916;BME280;41826;53.246;-6.670;2023-12-14T09:04:12;101490.00;;;6.88;100.00
55916;BME280;41826;53.246;-6.670;2023-12-14T09:06:39;101496.03;;;6.88;100.00
55916;BME280;41826;53.246;-6.670;2023-12-14T09:09:07;101498.47;;;6.91;100.00
55916;BME280;41826;53.246;-6.670;2023-12-14T09:11:33;101506.19;;;6.93;100.00
55916;BME280;41826;53.246;-6.670;2023-12-14T09:14:01;101511.53;;;6.91;100.00
55916;BME280;41826;53.246;-6.670;2023-12-14T09:16:27;101513.81;;;6.96;100.00
55916;BME280;41826;53.246;-6.670;2023-12-14T09:18:52;101518.22;;;6.95;100.00
55916;BME280;41826;53.246;-6.670;2023-12-14T09:21:19;101528.56;;;6.97;100.00
55916;BME280;41826;53.246;-6.670;2023-12-14T09:23:44;101527.31;;;7.03;100.00
55916;BME280;41826;53.246;-6.670;2023-12-14T09:26:10;101535.25;;;7.01;100.00
55916;BME280;41826;53.246;-6.670;2023-12-14T09:28:35;101544.84;;;7.01;100.00
55916;BME280;41826;53.246;-6.670;2023-12-14T09:31:02;101538.19;;;6.97;100.00
55916;BME280;41826;53.246;-6.670;2023-12-14T09:33:27;101546.63;;;7.00;100.00
55916;BME280;41826;53.246;-6.670;2023-12-14T09:35:53;101551.56;;;7.05;100.00
55916;BME280;41826;53.246;-6.670;2023-12-14T09:38:18;101552.38;;;7.05;100.00
55916;BME280;41826;53.246;-6.670;2023-12-14T09:40:44;101560.31;;;7.04;100.00
55916;BME280;41826;53.246;-6.670;2023-12-14T09:43:10;101578.03;;;6.99;100.00
55916;BME280;41826;53.246;-6.670;2023-12-14T09:45:37;101575.97;;;7.04;100.00
55916;BME280;41826;53.246;-6.670;2023-12-14T09:48:06;101584.34;;;7.09;100.00
55916;BME280;41826;53.246;-6.670;2023-12-14T09:50:33;101573.59;;;7.13;100.00
55916;BME280;41826;53.246;-6.670;2023-12-14T09:52:59;101590.44;;;7.09;100.00
55916;BME280;41826;53.246;-6.670;2023-12-14T09:55:24;101583.91;;;7.02;100.00
55916;BME280;41826;53.246;-6.670;2023-12-14T09:57:49;101590.06;;;7.01;100.00
55916;BME280;41826;53.246;-6.670;2023-12-14T10:00:32;101592.09;;;7.10;100.00
55916;BME280;41826;53.246;-6.670;2023-12-14T10:02:57;101592.94;;;7.11;100.00
55916;BME280;41826;53.246;-6.670;2023-12-14T10:05:26;101596.22;;;7.00;100.00
55916;BME280;41826;53.246;-6.670;2023-12-14T10:07:52;101599.94;;;7.10;100.00
55916;BME280;41826;53.246;-6.670;2023-12-14T10:10:18;101608.50;;;7.12;100.00
55916;BME280;41826;53.246;-6.670;2023-12-14T10:12:52;101608.59;;;7.11;100.00
55916;BME280;41826;53.246;-6.670;2023-12-14T10:15:21;101610.91;;;7.15;100.00
55916;BME280;41826;53.246;-6.670;2023-12-14T10:17:50;101627.53;;;7.14;100.00
55916;BME280;41826;53.246;-6.670;2023-12-14T10:20:19;101628.69;;;7.23;100.00
55916;BME280;41826;53.246;-6.670;2023-12-14T10:22:46;101634.38;;;7.30;100.00
55916;BME280;41826;53.246;-6.670;2023-12-14T10:25:12;101638.56;;;7.32;100.00
55916;BME280;41826;53.246;-6.670;2023-12-14T10:27:37;101652.25;;;7.36;100.00
55916;BME280;41826;53.246;-6.670;2023-12-14T10:30:06;101659.25;;;7.35;100.00
55916;BME280;41826;53.246;-6.670;2023-12-14T10:32:32;101668.94;;;7.33;100.00
55916;BME280;41826;53.246;-6.670;2023-12-14T10:34:58;101681.81;;;7.36;100.00
55916;BME280;41826;53.246;-6.670;2023-12-14T10:37:23;101684.25;;;7.40;100.00
55916;BME280;41826;53.246;-6.670;2023-12-14T10:39:50;101682.34;;;7.42;100.00
55916;BME280;41826;53.246;-6.670;2023-12-14T10:42:19;101693.66;;;7.42;100.00
55916;BME280;41826;53.246;-6.670;2023-12-14T10:44:46;101697.09;;;7.43;100.00
55916;BME280;41826;53.246;-6.670;2023-12-14T10:47:13;101703.84;;;7.32;100.00
55916;BME280;41826;53.246;-6.670;2023-12-14T10:49:40;101727.63;;;7.42;100.00
55916;BME280;41826;53.246;-6.670;2023-12-14T10:52:11;101728.47;;;7.43;100.00
55916;BME280;41826;53.246;-6.670;2023-12-14T10:54:37;101712.38;;;7.49;100.00
55916;BME280;41826;53.246;-6.670;2023-12-14T10:57:04;101724.53;;;7.50;100.00
55916;BME280;41826;53.246;-6.670;2023-12-14T10:59:33;101723.66;;;7.49;100.00
55916;BME280;41826;53.246;-6.670;2023-12-14T11:01:59;101726.19;;;7.51;100.00
55916;BME280;41826;53.246;-6.670;2023-12-14T11:04:32;101727.97;;;7.50;100.00
55916;BME280;41826;53.246;-6.670;2023-12-14T11:07:18;101732.38;;;7.50;100.00
55916;BME280;41826;53.246;-6.670;2023-12-14T11:09:44;101737.63;;;7.35;100.00
55916;BME280;41826;53.246;-6.670;2023-12-14T11:12:10;101754.66;;;7.55;100.00
55916;BME280;41826;53.246;-6.670;2023-12-14T11:14:38;101754.66;;;7.55;100.00
55916;BME280;41826;53.246;-6.670;2023-12-14T11:17:06;101750.03;;;7.59;100.00
55916;BME280;41826;53.246;-6.670;2023-12-14T11:19:32;101753.59;;;7.58;100.00
55916;BME280;41826;53.246;-6.670;2023-12-14T11:24:32;101770.88;;;7.60;100.00
55916;BME280;41826;53.246;-6.670;2023-12-14T11:26:57;101777.66;;;7.63;100.00
55916;BME280;41826;53.246;-6.670;2023-12-14T11:29:24;101773.94;;;7.67;100.00
55916;BME280;41826;53.246;-6.670;2023-12-14T11:31:50;101777.25;;;7.69;100.00
55916;BME280;41826;53.246;-6.670;2023-12-14T11:34:16;101780.63;;;7.71;100.00
55916;BME280;41826;53.246;-6.670;2023-12-14T11:36:42;101786.06;;;7.68;100.00
55916;BME280;41826;53.246;-6.670;2023-12-14T11:39:07;101787.28;;;7.63;100.00
55916;BME280;41826;53.246;-6.670;2023-12-14T11:41:33;101796.50;;;7.68;100.00
55916;BME280;41826;53.246;-6.670;2023-12-14T11:43:59;101797.63;;;7.64;100.00
55916;BME280;41826;53.246;-6.670;2023-12-14T11:46:24;101824.78;;;7.62;100.00
55916;BME280;41826;53.246;-6.670;2023-12-14T11:48:50;101828.25;;;7.62;100.00
55916;BME280;41826;53.246;-6.670;2023-12-14T11:51:16;101832.00;;;7.58;100.00
55916;BME280;41826;53.246;-6.670;2023-12-14T11:53:43;101832.06;;;7.71;100.00
55916;BME280;41826;53.246;-6.670;2023-12-14T11:56:09;101821.69;;;7.69;100.00
55916;BME280;41826;53.246;-6.670;2023-12-14T11:58:35;101819.63;;;7.74;100.00
55916;BME280;41826;53.246;-6.670;2023-12-14T12:01:13;101817.44;;;7.54;100.00
55916;BME280;41826;53.246;-6.670;2023-12-14T12:03:40;101834.91;;;7.53;100.00
55916;BME280;41826;53.246;-6.670;2023-12-14T12:06:05;101847.41;;;7.63;100.00
55916;BME280;41826;53.246;-6.670;2023-12-14T12:08:30;101855.72;;;7.55;100.00
55916;BME280;41826;53.246;-6.670;2023-12-14T12:10:57;101856.88;;;7.78;100.00
55916;BME280;41826;53.246;-6.670;2023-12-14T12:13:27;101850.16;;;7.74;100.00
55916;BME280;41826;53.246;-6.670;2023-12-14T12:15:54;101860.06;;;7.83;100.00
55916;BME280;41826;53.246;-6.670;2023-12-14T12:18:20;101853.25;;;7.80;100.00
55916;BME280;41826;53.246;-6.670;2023-12-14T12:20:46;101868.53;;;7.87;100.00
55916;BME280;41826;53.246;-6.670;2023-12-14T12:23:12;101869.00;;;7.93;100.00
55916;BME280;41826;53.246;-6.670;2023-12-14T12:25:37;101888.31;;;7.91;100.00
55916;BME280;41826;53.246;-6.670;2023-12-14T12:28:03;101882.63;;;7.84;100.00
55916;BME280;41826;53.246;-6.670;2023-12-14T12:30:31;101891.31;;;7.85;100.00
55916;BME280;41826;53.246;-6.670;2023-12-14T12:32:56;101896.78;;;7.67;100.00
55916;BME280;41826;53.246;-6.670;2023-12-14T12:35:23;101919.97;;;7.86;100.00
55916;BME280;41826;53.246;-6.670;2023-12-14T12:37:50;101915.09;;;7.94;100.00
55916;BME280;41826;53.246;-6.670;2023-12-14T12:40:19;101921.41;;;7.77;100.00